Aérodrome :
LOGIN :

S'inscrire | Disclaimer

   EN    FR    IT 

 










Légende :    VFR   VFR Marginal   IFR   IFR Intensif   IFR Très Intensif
Visi : 
Plafond : 
>= 8 km
>= 3000ft
5 à 8 km
1000 à 3000 ft
1500m à 5 km
500 à 1000 ft
800 à 1500m
200 à 500 ft
< 800m
< 200 ft
Symboles :   Orages  Brouillard  Fortes neiges  Fortes précipitations  Vent > 20 kt
SIGMETs :   Divers  Orages  Givrage  Turbulence  Onde Orograph.  Cendres Volcan.







- Altitude de l'aérodrome : 256 ft
- Code IATA : CFR
- Voir les cartes d'approche


LFRK - Caen

DERNIER METAR :
  • 191330Z AUTO 02003KT 350V060 9999 BKN028 BKN033 OVC100 11/05 Q1024 NOSIG

METARs EXPIRÉS :
  • 191300Z AUTO VRB03KT 9999 BKN030 BKN035 OVC200 11/05 Q1024 NOSIG
  • 191230Z AUTO 01003KT 330V060 9999 BKN031 OVC140 11/05 Q1024 NOSIG
  • 191200Z AUTO 01004KT 330V060 9999 FEW026 BKN031 OVC140 11/05 Q1024 NOSIG
  • 191130Z AUTO VRB03KT 9999 FEW023 SCT032 BKN140 11/05 Q1025 NOSIG
  • 191100Z AUTO 02004KT 350V060 9999 BKN030 11/06 Q1025 NOSIG

TAF TAF LFRK
Valide du 19 à 12h jusqu'au 19 à 21h UTC


191100Z 1912/1921 VRB03KT 9999 BKN020
Météo : +33 2 31 26 68 11
Pas de NOTAMs connus pour ce terrain.



MET'MAP, la Météo Aéronautique d'un coup d'oeil ! - Copyright ORBIFLY Décembre 2007 - Disclaimer

ORBIFLY MET'MAP TEAM :

Programmation & Développement : Alexandra Zaïnal
Conception & Développement : Baudouin d'Aumeries
Co-Programmation & Développement : Marc-Olivier Méhu
Soutien technique & logistique : Manuel Goepfert

Contact : metmap@orbifly.com




SOURCES & CREDITS :

   NOAA